sensor_id;sensor_type;location;lat;lon;timestamp;pressure;altitude;pressure_sealevel;temperature;humidity
5595;BME280;1003;48.002;7.788;2023-02-28T00:01:23;99470.41;;;-0.28;100.00
5595;BME280;1003;48.002;7.788;2023-02-28T00:03:51;99467.66;;;-0.36;100.00
5595;BME280;1003;48.002;7.788;2023-02-28T00:06:18;99473.56;;;-0.32;100.00
5595;BME280;1003;48.002;7.788;2023-02-28T00:08:46;99476.78;;;-0.33;100.00
5595;BME280;1003;48.002;7.788;2023-02-28T00:11:15;99480.84;;;-0.35;100.00
5595;BME280;1003;48.002;7.788;2023-02-28T00:13:45;99471.13;;;-0.53;100.00
5595;BME280;1003;48.002;7.788;2023-02-28T00:16:17;99474.09;;;-0.60;100.00
5595;BME280;1003;48.002;7.788;2023-02-28T00:18:44;99476.91;;;-0.73;100.00
5595;BME280;1003;48.002;7.788;2023-02-28T00:21:13;99478.03;;;-0.65;100.00
5595;BME280;1003;48.002;7.788;2023-02-28T00:23:40;99475.22;;;-0.54;100.00
5595;BME280;1003;48.002;7.788;2023-02-28T00:26:07;99483.22;;;-0.59;100.00
5595;BME280;1003;48.002;7.788;2023-02-28T00:28:34;99484.72;;;-0.63;100.00
5595;BME280;1003;48.002;7.788;2023-02-28T00:31:02;99477.56;;;-0.57;100.00
5595;BME280;1003;48.002;7.788;2023-02-28T00:33:30;99479.19;;;-0.57;100.00
5595;BME280;1003;48.002;7.788;2023-02-28T00:36:07;99477.00;;;-0.49;100.00
5595;BME280;1003;48.002;7.788;2023-02-28T00:38:34;99484.16;;;-0.35;100.00
5595;BME280;1003;48.002;7.788;2023-02-28T00:41:02;99482.09;;;-0.24;100.00
5595;BME280;1003;48.002;7.788;2023-02-28T00:43:32;99477.41;;;-0.39;100.00
5595;BME280;1003;48.002;7.788;2023-02-28T00:45:59;99482.28;;;-0.40;100.00
5595;BME280;1003;48.002;7.788;2023-02-28T00:48:26;99482.69;;;-0.30;100.00
5595;BME280;1003;48.002;7.788;2023-02-28T00:50:55;99489.69;;;-0.19;100.00
5595;BME280;1003;48.002;7.788;2023-02-28T00:53:22;99479.50;;;-0.27;100.00
5595;BME280;1003;48.002;7.788;2023-02-28T00:55:49;99482.47;;;-0.36;100.00
5595;BME280;1003;48.002;7.788;2023-02-28T00:58:16;99481.66;;;-0.14;100.00
5595;BME280;1003;48.002;7.788;2023-02-28T01:00:44;99485.63;;;-0.17;100.00
5595;BME280;1003;48.002;7.788;2023-02-28T01:03:15;99483.16;;;-0.17;100.00
5595;BME280;1003;48.002;7.788;2023-02-28T01:05:43;99478.72;;;-0.26;100.00
5595;BME280;1003;48.002;7.788;2023-02-28T01:08:12;99479.31;;;-0.11;100.00
5595;BME280;1003;48.002;7.788;2023-02-28T01:10:40;99474.97;;;-0.16;100.00
5595;BME280;1003;48.002;7.788;2023-02-28T01:13:08;99478.03;;;-0.22;100.00
5595;BME280;1003;48.002;7.788;2023-02-28T01:15:35;99475.22;;;-0.10;100.00
5595;BME280;1003;48.002;7.788;2023-02-28T01:18:02;99471.28;;;-0.05;100.00
5595;BME280;1003;48.002;7.788;2023-02-28T01:20:29;99465.59;;;-0.03;100.00
5595;BME280;1003;48.002;7.788;2023-02-28T01:22:56;99468.50;;;-0.13;100.00
5595;BME280;1003;48.002;7.788;2023-02-28T01:25:24;99464.81;;;-0.02;100.00
5595;BME280;1003;48.002;7.788;2023-02-28T01:27:51;99465.78;;;-0.20;100.00
5595;BME280;1003;48.002;7.788;2023-02-28T01:30:19;99462.47;;;-0.21;100.00
5595;BME280;1003;48.002;7.788;2023-02-28T01:32:46;99462.50;;;-0.19;100.00
5595;BME280;1003;48.002;7.788;2023-02-28T01:35:13;99466.00;;;-0.14;100.00
5595;BME280;1003;48.002;7.788;2023-02-28T01:37:40;99462.25;;;-0.05;100.00
5595;BME280;1003;48.002;7.788;2023-02-28T01:40:10;99476.53;;;0.04;100.00
5595;BME280;1003;48.002;7.788;2023-02-28T01:42:39;99474.41;;;-0.09;100.00
5595;BME280;1003;48.002;7.788;2023-02-28T01:45:21;99474.06;;;-0.18;100.00
5595;BME280;1003;48.002;7.788;2023-02-28T01:47:52;99476.34;;;-0.23;100.00
5595;BME280;1003;48.002;7.788;2023-02-28T01:50:24;99466.84;;;-0.14;100.00
5595;BME280;1003;48.002;7.788;2023-02-28T01:52:56;99468.50;;;-0.13;100.00
5595;BME280;1003;48.002;7.788;2023-02-28T01:55:27;99468.34;;;-0.17;100.00
5595;BME280;1003;48.002;7.788;2023-02-28T01:58:00;99464.19;;;-0.18;100.00
5595;BME280;1003;48.002;7.788;2023-02-28T02:00:30;99456.38;;;-0.29;100.00
5595;BME280;1003;48.002;7.788;2023-02-28T02:03:04;99457.66;;;-0.39;100.00
5595;BME280;1003;48.002;7.788;2023-02-28T02:05:32;99462.38;;;-0.22;100.00
5595;BME280;1003;48.002;7.788;2023-02-28T02:08:05;99454.47;;;-0.14;100.00
5595;BME280;1003;48.002;7.788;2023-02-28T02:10:36;99451.03;;;-0.17;100.00
5595;BME280;1003;48.002;7.788;2023-02-28T02:13:24;99451.25;;;-0.11;100.00
5595;BME280;1003;48.002;7.788;2023-02-28T02:16:06;99454.75;;;-0.06;100.00
5595;BME280;1003;48.002;7.788;2023-02-28T02:18:43;99459.59;;;-0.09;100.00
5595;BME280;1003;48.002;7.788;2023-02-28T02:24:59;99439.88;;;-0.30;100.00
5595;BME280;1003;48.002;7.788;2023-02-28T02:27:59;99446.31;;;-0.34;100.00
5595;BME280;1003;48.002;7.788;2023-02-28T02:31:00;99455.19;;;-0.39;100.00
5595;BME280;1003;48.002;7.788;2023-02-28T02:34:28;99451.00;;;-0.41;100.00
5595;BME280;1003;48.002;7.788;2023-02-28T02:37:09;99460.81;;;-0.43;100.00
5595;BME280;1003;48.002;7.788;2023-02-28T02:39:48;99458.25;;;-0.44;100.00
5595;BME280;1003;48.002;7.788;2023-02-28T02:42:25;99459.63;;;-0.52;100.00
5595;BME280;1003;48.002;7.788;2023-02-28T02:45:01;99463.53;;;-0.58;100.00
5595;BME280;1003;48.002;7.788;2023-02-28T02:47:33;99462.59;;;-0.60;100.00
5595;BME280;1003;48.002;7.788;2023-02-28T02:50:10;99465.25;;;-0.55;100.00
5595;BME280;1003;48.002;7.788;2023-02-28T02:52:44;99476.38;;;-0.65;100.00
5595;BME280;1003;48.002;7.788;2023-02-28T02:55:15;99464.00;;;-0.66;100.00
5595;BME280;1003;48.002;7.788;2023-02-28T02:57:48;99465.56;;;-0.68;100.00
5595;BME280;1003;48.002;7.788;2023-02-28T03:00:22;99460.75;;;-0.65;100.00
5595;BME280;1003;48.002;7.788;2023-02-28T03:02:54;99464.78;;;-0.67;100.00
5595;BME280;1003;48.002;7.788;2023-02-28T03:05:29;99464.66;;;-0.70;100.00
5595;BME280;1003;48.002;7.788;2023-02-28T03:07:59;99469.69;;;-0.69;100.00
5595;BME280;1003;48.002;7.788;2023-02-28T03:10:38;99468.22;;;-0.64;100.00
5595;BME280;1003;48.002;7.788;2023-02-28T03:13:52;99461.47;;;-0.68;100.00
5595;BME280;1003;48.002;7.788;2023-02-28T03:16:36;99465.69;;;-0.65;100.00
5595;BME280;1003;48.002;7.788;2023-02-28T03:19:35;99465.41;;;-0.73;100.00
5595;BME280;1003;48.002;7.788;2023-02-28T03:22:28;99464.38;;;-0.78;100.00
5595;BME280;1003;48.002;7.788;2023-02-28T03:25:07;99471.81;;;-0.76;100.00
5595;BME280;1003;48.002;7.788;2023-02-28T03:27:41;99472.94;;;-0.70;100.00
5595;BME280;1003;48.002;7.788;2023-02-28T03:30:22;99472.94;;;-0.70;100.00
5595;BME280;1003;48.002;7.788;2023-02-28T03:32:57;99465.63;;;-0.67;100.00
5595;BME280;1003;48.002;7.788;2023-02-28T03:35:30;99472.44;;;-0.61;100.00
5595;BME280;1003;48.002;7.788;2023-02-28T03:38:08;99473.09;;;-0.65;100.00
5595;BME280;1003;48.002;7.788;2023-02-28T03:40:43;99468.22;;;-0.64;100.00
5595;BME280;1003;48.002;7.788;2023-02-28T03:43:19;99471.97;;;-0.73;100.00
5595;BME280;1003;48.002;7.788;2023-02-28T03:45:50;99477.13;;;-0.88;100.00
5595;BME280;1003;48.002;7.788;2023-02-28T03:48:23;99471.03;;;-0.75;100.00
5595;BME280;1003;48.002;7.788;2023-02-28T03:50:57;99483.31;;;-0.77;100.00
5595;BME280;1003;48.002;7.788;2023-02-28T03:53:31;99476.41;;;-0.86;100.00
5595;BME280;1003;48.002;7.788;2023-02-28T03:56:06;99481.56;;;-1.00;100.00
5595;BME280;1003;48.002;7.788;2023-02-28T03:58:46;99488.22;;;-0.98;100.00
5595;BME280;1003;48.002;7.788;2023-02-28T04:01:20;99490.44;;;-0.85;100.00
5595;BME280;1003;48.002;7.788;2023-02-28T04:03:50;99488.22;;;-0.98;100.00
5595;BME280;1003;48.002;7.788;2023-02-28T04:06:21;99494.56;;;-1.04;100.00
5595;BME280;1003;48.002;7.788;2023-02-28T04:08:50;99492.91;;;-1.04;100.00
5595;BME280;1003;48.002;7.788;2023-02-28T04:11:23;99501.06;;;-1.07;100.00
5595;BME280;1003;48.002;7.788;2023-02-28T04:13:50;99498.69;;;-1.03;100.00
5595;BME280;1003;48.002;7.788;2023-02-28T04:16:17;99502.53;;;-1.10;100.00
5595;BME280;1003;48.002;7.788;2023-02-28T04:18:44;99511.63;;;-1.09;100.00
5595;BME280;1003;48.002;7.788;2023-02-28T04:21:12;99511.81;;;-1.04;100.00
5595;BME280;1003;48.002;7.788;2023-02-28T04:23:39;99522.00;;;-0.97;100.00
5595;BME280;1003;48.002;7.788;2023-02-28T04:26:08;99509.53;;;-1.00;100.00
5595;BME280;1003;48.002;7.788;2023-02-28T04:28:38;99521.34;;;-0.93;100.00
5595;BME280;1003;48.002;7.788;2023-02-28T04:31:05;99524.31;;;-0.81;100.00
5595;BME280;1003;48.002;7.788;2023-02-28T04:33:33;99523.41;;;-0.83;100.00
5595;BME280;1003;48.002;7.788;2023-02-28T04:36:01;99516.00;;;-0.83;100.00
5595;BME280;1003;48.002;7.788;2023-02-28T04:38:30;99522.38;;;-0.88;100.00
5595;BME280;1003;48.002;7.788;2023-02-28T04:40:59;99526.22;;;-0.94;100.00
5595;BME280;1003;48.002;7.788;2023-02-28T04:43:29;99535.75;;;-0.83;100.00
5595;BME280;1003;48.002;7.788;2023-02-28T04:46:00;99533.31;;;-0.81;100.00
5595;BME280;1003;48.002;7.788;2023-02-28T04:48:29;99537.50;;;-0.80;100.00
5595;BME280;1003;48.002;7.788;2023-02-28T04:51:00;99535.09;;;-0.78;100.00
5595;BME280;1003;48.002;7.788;2023-02-28T04:53:29;99539.25;;;-0.77;100.00
5595;BME280;1003;48.002;7.788;2023-02-28T04:55:56;99538.09;;;-0.65;100.00
5595;BME280;1003;48.002;7.788;2023-02-28T04:58:24;99536.91;;;-0.74;100.00
5595;BME280;1003;48.002;7.788;2023-02-28T05:00:53;99544.06;;;-0.81;100.00
5595;BME280;1003;48.002;7.788;2023-02-28T05:03:21;99541.44;;;-0.64;100.00
5595;BME280;1003;48.002;7.788;2023-02-28T05:05:48;99541.75;;;-0.76;100.00
5595;BME280;1003;48.002;7.788;2023-02-28T05:08:15;99541.94;;;-0.71;100.00
5595;BME280;1003;48.002;7.788;2023-02-28T05:10:42;99541.72;;;-0.77;100.00
5595;BME280;1003;48.002;7.788;2023-02-28T05:13:11;99541.91;;;-0.73;100.00
5595;BME280;1003;48.002;7.788;2023-02-28T05:15:39;99545.16;;;-0.74;100.00
5595;BME280;1003;48.002;7.788;2023-02-28T05:18:08;99548.16;;;-0.60;100.00
5595;BME280;1003;48.002;7.788;2023-02-28T05:20:35;99546.25;;;-0.67;100.00
5595;BME280;1003;48.002;7.788;2023-02-28T05:23:03;99545.03;;;-0.56;100.00
5595;BME280;1003;48.002;7.788;2023-02-28T05:25:30;99550.38;;;-0.66;100.00
5595;BME280;1003;48.002;7.788;2023-02-28T05:27:57;99555.25;;;-0.68;100.00
5595;BME280;1003;48.002;7.788;2023-02-28T05:30:24;99549.97;;;-0.56;100.00
5595;BME280;1003;48.002;7.788;2023-02-28T05:32:52;99544.34;;;-0.54;100.00
5595;BME280;1003;48.002;7.788;2023-02-28T05:35:20;99557.28;;;-0.59;100.00
5595;BME280;1003;48.002;7.788;2023-02-28T05:37:47;99557.84;;;-0.44;100.00
5595;BME280;1003;48.002;7.788;2023-02-28T05:40:15;99558.59;;;-0.46;100.00
5595;BME280;1003;48.002;7.788;2023-02-28T05:42:42;99564.25;;;-0.49;100.00
5595;BME280;1003;48.002;7.788;2023-02-28T05:45:10;99563.94;;;-0.57;100.00
5595;BME280;1003;48.002;7.788;2023-02-28T05:47:37;99570.03;;;-0.69;100.00
5595;BME280;1003;48.002;7.788;2023-02-28T05:50:06;99578.19;;;-0.70;100.00
5595;BME280;1003;48.002;7.788;2023-02-28T05:52:37;99580.34;;;-0.78;100.00
5595;BME280;1003;48.002;7.788;2023-02-28T05:55:05;99579.75;;;-0.72;100.00
5595;BME280;1003;48.002;7.788;2023-02-28T05:57:32;99583.25;;;-0.87;100.00
5595;BME280;1003;48.002;7.788;2023-02-28T05:59:59;99601.31;;;-0.88;100.00
5595;BME280;1003;48.002;7.788;2023-02-28T06:02:26;99589.78;;;-0.89;100.00
5595;BME280;1003;48.002;7.788;2023-02-28T06:04:54;99596.97;;;-0.93;100.00
5595;BME280;1003;48.002;7.788;2023-02-28T06:07:21;99588.16;;;-1.08;100.00
5595;BME280;1003;48.002;7.788;2023-02-28T06:09:50;99614.72;;;-1.02;100.00
5595;BME280;1003;48.002;7.788;2023-02-28T06:12:17;99602.09;;;-1.08;100.00
5595;BME280;1003;48.002;7.788;2023-02-28T06:14:44;99616.13;;;-1.07;100.00
5595;BME280;1003;48.002;7.788;2023-02-28T06:17:11;99618.59;;;-1.07;100.00
5595;BME280;1003;48.002;7.788;2023-02-28T06:19:38;99636.69;;;-0.87;100.00
5595;BME280;1003;48.002;7.788;2023-02-28T06:22:07;99629.88;;;-0.93;100.00
5595;BME280;1003;48.002;7.788;2023-02-28T06:24:34;99644.81;;;-1.09;100.00
5595;BME280;1003;48.002;7.788;2023-02-28T06:27:02;99654.47;;;-1.14;100.00
5595;BME280;1003;48.002;7.788;2023-02-28T06:29:31;99666.09;;;-1.11;100.00
5595;BME280;1003;48.002;7.788;2023-02-28T06:31:59;99673.44;;;-1.13;100.00
5595;BME280;1003;48.002;7.788;2023-02-28T06:34:26;99678.00;;;-1.20;100.00
5595;BME280;1003;48.002;7.788;2023-02-28T06:36:54;99691.34;;;-1.17;100.00
5595;BME280;1003;48.002;7.788;2023-02-28T06:39:21;99701.88;;;-1.19;100.00
5595;BME280;1003;48.002;7.788;2023-02-28T06:41:48;99702.31;;;-1.10;100.00
5595;BME280;1003;48.002;7.788;2023-02-28T06:44:18;99711.91;;;-1.16;100.00
5595;BME280;1003;48.002;7.788;2023-02-28T06:46:46;99715.78;;;-1.21;100.00
5595;BME280;1003;48.002;7.788;2023-02-28T06:49:13;99731.75;;;-1.13;100.00
5595;BME280;1003;48.002;7.788;2023-02-28T06:51:43;99737.28;;;-1.01;100.00
5595;BME280;1003;48.002;7.788;2023-02-28T06:54:12;99740.50;;;-1.02;100.00
5595;BME280;1003;48.002;7.788;2023-02-28T06:56:39;99728.44;;;-0.96;100.00
5595;BME280;1003;48.002;7.788;2023-02-28T06:59:07;99742.25;;;-0.99;100.00
5595;BME280;1003;48.002;7.788;2023-02-28T07:01:35;99745.72;;;-0.96;100.00
5595;BME280;1003;48.002;7.788;2023-02-28T07:04:04;99742.00;;;-0.86;100.00
5595;BME280;1003;48.002;7.788;2023-02-28T07:06:32;99740.41;;;-0.86;100.00
5595;BME280;1003;48.002;7.788;2023-02-28T07:08:59;99742.63;;;-0.72;100.00
5595;BME280;1003;48.002;7.788;2023-02-28T07:11:27;99732.91;;;-0.69;100.00
5595;BME280;1003;48.002;7.788;2023-02-28T07:13:55;99737.78;;;-0.51;100.00
5595;BME280;1003;48.002;7.788;2023-02-28T07:16:24;99736.31;;;-0.48;100.00
5595;BME280;1003;48.002;7.788;2023-02-28T07:18:54;99734.84;;;-0.62;100.00
5595;BME280;1003;48.002;7.788;2023-02-28T07:21:22;99724.72;;;-0.49;100.00
5595;BME280;1003;48.002;7.788;2023-02-28T07:23:49;99716.81;;;-0.42;100.00
5595;BME280;1003;48.002;7.788;2023-02-28T07:26:18;99712.81;;;-0.38;100.00
5595;BME280;1003;48.002;7.788;2023-02-28T07:28:48;99717.97;;;-0.34;100.00
5595;BME280;1003;48.002;7.788;2023-02-28T07:31:16;99706.13;;;-0.21;100.00
5595;BME280;1003;48.002;7.788;2023-02-28T07:33:44;99697.16;;;-0.19;100.00
5595;BME280;1003;48.002;7.788;2023-02-28T07:36:16;99691.56;;;-0.15;100.00
5595;BME280;1003;48.002;7.788;2023-02-28T07:38:46;99690.28;;;-0.06;100.00
5595;BME280;1003;48.002;7.788;2023-02-28T07:41:14;99695.19;;;-0.07;100.00
5595;BME280;1003;48.002;7.788;2023-02-28T07:43:41;99691.22;;;-0.04;100.00
5595;BME280;1003;48.002;7.788;2023-02-28T07:46:10;99696.59;;;0.07;100.00
5595;BME280;1003;48.002;7.788;2023-02-28T07:48:38;99696.97;;;0.16;100.00
5595;BME280;1003;48.002;7.788;2023-02-28T07:51:05;99697.81;;;0.38;100.00
5595;BME280;1003;48.002;7.788;2023-02-28T07:53:34;99683.28;;;0.47;100.00
5595;BME280;1003;48.002;7.788;2023-02-28T07:56:02;99690.59;;;0.65;100.00
5595;BME280;1003;48.002;7.788;2023-02-28T07:58:30;99693.00;;;0.86;100.00
5595;BME280;1003;48.002;7.788;2023-02-28T08:00:57;99685.28;;;0.78;100.00
5595;BME280;1003;48.002;7.788;2023-02-28T08:03:31;99672.72;;;0.72;100.00
5595;BME280;1003;48.002;7.788;2023-02-28T08:05:58;99679.94;;;0.90;100.00
5595;BME280;1003;48.002;7.788;2023-02-28T08:08:25;99672.69;;;0.94;100.00
5595;BME280;1003;48.002;7.788;2023-02-28T08:10:58;99670.44;;;1.00;100.00
5595;BME280;1003;48.002;7.788;2023-02-28T08:13:26;99678.97;;;1.31;100.00
5595;BME280;1003;48.002;7.788;2023-02-28T08:15:54;99679.06;;;1.34;100.00
5595;BME280;1003;48.002;7.788;2023-02-28T08:18:21;99680.22;;;1.44;100.00
5595;BME280;1003;48.002;7.788;2023-02-28T08:20:49;99673.47;;;1.40;100.00
5595;BME280;1003;48.002;7.788;2023-02-28T08:23:16;99672.97;;;1.24;100.00
5595;BME280;1003;48.002;7.788;2023-02-28T08:25:43;99674.38;;;1.42;100.00
5595;BME280;1003;48.002;7.788;2023-02-28T08:28:12;99675.31;;;1.21;100.00
5595;BME280;1003;48.002;7.788;2023-02-28T08:30:38;99672.13;;;1.24;100.00
5595;BME280;1003;48.002;7.788;2023-02-28T08:33:06;99673.41;;;1.14;100.00
5595;BME280;1003;48.002;7.788;2023-02-28T08:35:36;99678.16;;;1.32;100.00
5595;BME280;1003;48.002;7.788;2023-02-28T08:38:03;99672.66;;;1.17;100.00
5595;BME280;1003;48.002;7.788;2023-02-28T08:40:30;99676.28;;;1.25;100.00
5595;BME280;1003;48.002;7.788;2023-02-28T08:42:57;99671.94;;;1.19;100.00
5595;BME280;1003;48.002;7.788;2023-02-28T08:45:26;99674.41;;;1.43;100.00
5595;BME280;1003;48.002;7.788;2023-02-28T08:47:54;99672.78;;;1.20;100.00
5595;BME280;1003;48.002;7.788;2023-02-28T08:50:21;99692.09;;;1.52;100.00
5595;BME280;1003;48.002;7.788;2023-02-28T08:52:48;99676.38;;;1.52;100.00
5595;BME280;1003;48.002;7.788;2023-02-28T08:55:15;99678.59;;;1.68;100.00
5595;BME280;1003;48.002;7.788;2023-02-28T08:57:43;99684.69;;;1.78;100.00
5595;BME280;1003;48.002;7.788;2023-02-28T09:00:12;99677.31;;;1.79;100.00
5595;BME280;1003;48.002;7.788;2023-02-28T09:02:41;99676.66;;;1.61;100.00
5595;BME280;1003;48.002;7.788;2023-02-28T09:05:09;99675.25;;;1.68;100.00
5595;BME280;1003;48.002;7.788;2023-02-28T09:07:36;99677.03;;;1.97;100.00
5595;BME280;1003;48.002;7.788;2023-02-28T09:10:04;99663.38;;;1.83;100.00
5595;BME280;1003;48.002;7.788;2023-02-28T09:12:34;99676.69;;;2.38;100.00
5595;BME280;1003;48.002;7.788;2023-02-28T09:15:01;99670.13;;;2.68;100.00
5595;BME280;1003;48.002;7.788;2023-02-28T09:17:29;99656.78;;;2.93;100.00
5595;BME280;1003;48.002;7.788;2023-02-28T09:19:57;99653.59;;;2.97;100.00
5595;BME280;1003;48.002;7.788;2023-02-28T09:22:24;99649.06;;;2.84;100.00
5595;BME280;1003;48.002;7.788;2023-02-28T09:24:51;99646.97;;;2.96;100.00
5595;BME280;1003;48.002;7.788;2023-02-28T09:27:18;99634.44;;;3.23;100.00
5595;BME280;1003;48.002;7.788;2023-02-28T09:29:46;99629.75;;;3.34;100.00
5595;BME280;1003;48.002;7.788;2023-02-28T09:32:13;99631.66;;;3.44;100.00
5595;BME280;1003;48.002;7.788;2023-02-28T09:34:40;99616.94;;;3.50;100.00
5595;BME280;1003;48.002;7.788;2023-02-28T09:37:08;99616.97;;;3.52;100.00
5595;BME280;1003;48.002;7.788;2023-02-28T09:39:35;99615.41;;;3.55;100.00
5595;BME280;1003;48.002;7.788;2023-02-28T09:42:04;99609.47;;;3.50;100.00
5595;BME280;1003;48.002;7.788;2023-02-28T09:44:37;99604.38;;;3.79;100.00
5595;BME280;1003;48.002;7.788;2023-02-28T09:47:13;99584.88;;;3.95;100.00
5595;BME280;1003;48.002;7.788;2023-02-28T09:49:47;99572.50;;;4.79;100.00
5595;BME280;1003;48.002;7.788;2023-02-28T09:52:21;99567.06;;;4.56;100.00
5595;BME280;1003;48.002;7.788;2023-02-28T09:54:52;99553.69;;;4.49;100.00
5595;BME280;1003;48.002;7.788;2023-02-28T09:57:34;99560.22;;;4.44;100.00
5595;BME280;1003;48.002;7.788;2023-02-28T10:00:14;99554.63;;;4.15;100.00
5595;BME280;1003;48.002;7.788;2023-02-28T10:03:10;99553.59;;;4.07;100.00
5595;BME280;1003;48.002;7.788;2023-02-28T10:05:50;99547.84;;;4.47;100.00
5595;BME280;1003;48.002;7.788;2023-02-28T10:08:25;99539.69;;;4.56;100.00
5595;BME280;1003;48.002;7.788;2023-02-28T10:10:57;99536.16;;;4.44;100.00
5595;BME280;1003;48.002;7.788;2023-02-28T10:13:32;99536.78;;;4.34;100.00
5595;BME280;1003;48.002;7.788;2023-02-28T10:16:06;99527.03;;;4.04;100.00
5595;BME280;1003;48.002;7.788;2023-02-28T10:18:45;99534.97;;;4.27;100.00
5595;BME280;1003;48.002;7.788;2023-02-28T10:21:22;99539.75;;;5.01;100.00
5595;BME280;1003;48.002;7.788;2023-02-28T10:24:03;99531.09;;;5.31;100.00
5595;BME280;1003;48.002;7.788;2023-02-28T10:26:32;99526.22;;;5.37;100.00
5595;BME280;1003;48.002;7.788;2023-02-28T10:29:00;99525.56;;;5.47;100.00
5595;BME280;1003;48.002;7.788;2023-02-28T10:31:28;99524.66;;;5.43;100.00
5595;BME280;1003;48.002;7.788;2023-02-28T10:33:56;99523.53;;;5.26;100.00
5595;BME280;1003;48.002;7.788;2023-02-28T10:36:23;99525.22;;;5.27;100.00
5595;BME280;1003;48.002;7.788;2023-02-28T10:38:51;99520.66;;;5.53;100.00
5595;BME280;1003;48.002;7.788;2023-02-28T10:41:29;99532.63;;;5.75;100.00
5595;BME280;1003;48.002;7.788;2023-02-28T10:44:19;99515.75;;;5.59;100.00
5595;BME280;1003;48.002;7.788;2023-02-28T10:46:48;99514.31;;;5.72;100.00
5595;BME280;1003;48.002;7.788;2023-02-28T10:49:21;99517.88;;;5.35;100.00
5595;BME280;1003;48.002;7.788;2023-02-28T10:51:54;99531.06;;;4.82;100.00
5595;BME280;1003;48.002;7.788;2023-02-28T10:54:27;99536.84;;;4.80;100.00
5595;BME280;1003;48.002;7.788;2023-02-28T10:57:11;99538.75;;;4.94;100.00
5595;BME280;1003;48.002;7.788;2023-02-28T10:59:41;99540.22;;;4.82;100.00
5595;BME280;1003;48.002;7.788;2023-02-28T11:02:33;99531.75;;;5.19;100.00
5595;BME280;1003;48.002;7.788;2023-02-28T11:05:00;99544.47;;;4.87;100.00
5595;BME280;1003;48.002;7.788;2023-02-28T11:07:28;99539.47;;;4.87;100.00
5595;BME280;1003;48.002;7.788;2023-02-28T11:09:58;99546.75;;;4.77;100.00
5595;BME280;1003;48.002;7.788;2023-02-28T11:12:34;99541.13;;;4.44;100.00
5595;BME280;1003;48.002;7.788;2023-02-28T11:15:18;99538.72;;;4.47;100.00
5595;BME280;1003;48.002;7.788;2023-02-28T11:17:54;99545.59;;;4.59;100.00
5595;BME280;1003;48.002;7.788;2023-02-28T11:20:25;99542.72;;;4.41;100.00
5595;BME280;1003;48.002;7.788;2023-02-28T11:22:55;99545.16;;;4.38;100.00
5595;BME280;1003;48.002;7.788;2023-02-28T11:25:26;99541.56;;;4.66;100.00
5595;BME280;1003;48.002;7.788;2023-02-28T11:27:58;99539.06;;;4.66;100.00
5595;BME280;1003;48.002;7.788;2023-02-28T11:30:36;99542.00;;;4.89;100.00
5595;BME280;1003;48.002;7.788;2023-02-28T11:33:27;99535.41;;;4.91;100.00
5595;BME280;1003;48.002;7.788;2023-02-28T11:36:00;99539.50;;;4.89;100.00
5595;BME280;1003;48.002;7.788;2023-02-28T11:38:27;99531.59;;;4.64;100.00
5595;BME280;1003;48.002;7.788;2023-02-28T11:41:28;99524.28;;;5.72;100.00
5595;BME280;1003;48.002;7.788;2023-02-28T11:44:19;99537.09;;;5.40;100.00
5595;BME280;1003;48.002;7.788;2023-02-28T11:46:53;99525.94;;;5.21;100.00
5595;BME280;1003;48.002;7.788;2023-02-28T11:49:32;99526.13;;;5.31;100.00
5595;BME280;1003;48.002;7.788;2023-02-28T11:52:16;99531.72;;;5.17;100.00
5595;BME280;1003;48.002;7.788;2023-02-28T11:55:11;99528.34;;;5.65;100.00
5595;BME280;1003;48.002;7.788;2023-02-28T11:58:17;99519.56;;;5.36;100.00
5595;BME280;1003;48.002;7.788;2023-02-28T12:01:20;99507.50;;;5.62;100.00
5595;BME280;1003;48.002;7.788;2023-02-28T12:04:02;99516.91;;;5.79;100.00
5595;BME280;1003;48.002;7.788;2023-02-28T12:06:40;99514.13;;;5.60;100.00
5595;BME280;1003;48.002;7.788;2023-02-28T12:09:34;99512.16;;;5.40;100.00
5595;BME280;1003;48.002;7.788;2023-02-28T12:12:21;99514.25;;;5.69;100.00
5595;BME280;1003;48.002;7.788;2023-02-28T12:15:24;99512.41;;;5.56;100.00
5595;BME280;1003;48.002;7.788;2023-02-28T12:21:10;99503.03;;;5.41;100.00
5595;BME280;1003;48.002;7.788;2023-02-28T12:23:56;99506.19;;;5.32;100.00
5595;BME280;1003;48.002;7.788;2023-02-28T12:26:36;99523.69;;;4.85;100.00
5595;BME280;1003;48.002;7.788;2023-02-28T12:29:15;99519.13;;;5.10;100.00
5595;BME280;1003;48.002;7.788;2023-02-28T12:31:50;99508.78;;;5.37;100.00
5595;BME280;1003;48.002;7.788;2023-02-28T12:34:25;99507.44;;;5.57;100.00
5595;BME280;1003;48.002;7.788;2023-02-28T12:36:58;99501.75;;;5.14;100.00
5595;BME280;1003;48.002;7.788;2023-02-28T12:39:33;99499.50;;;5.28;100.00
5595;BME280;1003;48.002;7.788;2023-02-28T12:42:07;99504.94;;;5.59;100.00
5595;BME280;1003;48.002;7.788;2023-02-28T12:44:46;99497.22;;;5.42;100.00
5595;BME280;1003;48.002;7.788;2023-02-28T12:47:17;99498.22;;;5.51;100.00
5595;BME280;1003;48.002;7.788;2023-02-28T12:49:52;99495.63;;;5.45;100.00
5595;BME280;1003;48.002;7.788;2023-02-28T12:52:30;99490.22;;;5.21;100.00
5595;BME280;1003;48.002;7.788;2023-02-28T12:55:12;99489.63;;;5.90;100.00
5595;BME280;1003;48.002;7.788;2023-02-28T12:57:51;99484.81;;;6.01;100.00
5595;BME280;1003;48.002;7.788;2023-02-28T13:00:25;99491.38;;;5.93;100.00
5595;BME280;1003;48.002;7.788;2023-02-28T13:03:31;99482.72;;;5.71;100.00
5595;BME280;1003;48.002;7.788;2023-02-28T13:06:44;99479.50;;;5.81;100.00
5595;BME280;1003;48.002;7.788;2023-02-28T13:09:20;99475.91;;;5.61;100.00
5595;BME280;1003;48.002;7.788;2023-02-28T13:11:49;99482.25;;;5.39;100.00
5595;BME280;1003;48.002;7.788;2023-02-28T13:14:24;99474.44;;;5.20;100.00
5595;BME280;1003;48.002;7.788;2023-02-28T13:16:59;99477.22;;;5.37;100.00
5595;BME280;1003;48.002;7.788;2023-02-28T13:19:31;99487.41;;;5.51;100.00
5595;BME280;1003;48.002;7.788;2023-02-28T13:22:01;99486.63;;;5.04;100.00
5595;BME280;1003;48.002;7.788;2023-02-28T13:24:53;99479.16;;;5.57;100.00
5595;BME280;1003;48.002;7.788;2023-02-28T13:27:37;99479.94;;;5.54;100.00
5595;BME280;1003;48.002;7.788;2023-02-28T13:33:30;99478.34;;;5.56;100.00
5595;BME280;1003;48.002;7.788;2023-02-28T13:36:24;99480.81;;;5.03;100.00
5595;BME280;1003;48.002;7.788;2023-02-28T13:38:54;99483.00;;;5.35;100.00
5595;BME280;1003;48.002;7.788;2023-02-28T13:41:45;99493.81;;;5.37;100.00
5595;BME280;1003;48.002;7.788;2023-02-28T13:44:16;99494.34;;;5.17;100.00
5595;BME280;1003;48.002;7.788;2023-02-28T13:47:28;99485.41;;;5.30;100.00
5595;BME280;1003;48.002;7.788;2023-02-28T13:50:15;99492.06;;;5.30;100.00
5595;BME280;1003;48.002;7.788;2023-02-28T13:52:57;99492.22;;;5.39;100.00
5595;BME280;1003;48.002;7.788;2023-02-28T13:55:35;99492.38;;;5.49;100.00